Oslo, Norway
Current Conditions -  °F | °C
As of 1:20 PM on Friday 24 Oct 2014 (Local Time) from ENGM Reporting Station
Light Rain Light Rain  
Wind Chill: 52°   Ceiling: 500
Heat Index: 52°   Visibility: 6mi
Dew Point: 50°   Wind: 14mph
Humidity: 94%   Direction: 170°S
Pressure: 29.8"   Gusts: NA
Location:  60.2°N, 11.08°E
Report Text: ENGM 241120Z 17012KT 9000 -RA FEW003 BKN005 11/10 Q1009 TEMPO BKN003
Loading
Personal Weather Stations






























Interactive Weather Map
Tropical Storm Tracking
New forecast layout! Learn more

10-Day Weather Forecast

Advertisements
Track Severe Weather on mobile